Carl Cannon — WDC6533 — position and weather

sailwx.info

Track history (hours):
 
Tides and Currents Weather Stations Pressure Air Temp Water Temp Dewpoint Dewpoint Depression Visibility Wind Speed Wind Dir Waves Ship Positions

Carl Cannon

Owner: American Commercial Lines LLC, Jeffersonville, IN. More information available from US FCC via Universal Licensing System and Coast Guard Vessel Documentation Center.

Last reported at 2017-Oct-20 17:56 UTC. Time now 2017-Nov-17 23:19 UTC.
Position N 32°40' W 091°07'.
Warning: this ship's position is 28 days out of date.

Length 41 m; draft 3.4 m.

MMSI: 367057590.

Date/timePositionNaut miles runAvg speedWind from/ knotsBaromVisibWave heightAir tempDewpointWater temp
2017-Oct-20 17:56N 32°40' W 091°07'1 3.4
2017-Oct-20 17:29N 32°39' W 091°09'2 3.5
2017-Oct-20 17:00N 32°38' W 091°09'2 4.2
2017-Oct-20 16:30N 32°36' W 091°08'2 4.4
2017-Oct-20 16:00N 32°34' W 091°06'2 3.6
2017-Oct-20 15:30N 32°32' W 091°06'2 4.7
2017-Oct-20 15:00N 32°30' W 091°07'2 4.6
2017-Oct-20 14:30N 32°28' W 091°06'5 4.5
2017-Oct-20 13:30N 32°26' W 091°01'2 4.1
2017-Oct-20 13:00N 32°25' W 090°60'2 3.8
2017-Oct-20 12:30N 32°23' W 091°00'1 1.5
2017-Oct-20 12:00N 32°22' W 091°00'1 2.5
2017-Oct-20 11:30N 32°21' W 090°59'2 4.8
2017-Oct-20 11:00N 32°21' W 090°57'2 4.2
2017-Oct-20 10:30N 32°20' W 090°54'2 4.0
2017-Oct-20 10:00N 32°18' W 090°55'0 0.9
2017-Oct-20 09:30N 32°18' W 090°55'0 0.6
2017-Oct-20 09:00N 32°18' W 090°55'0 0.1
2017-Oct-20 08:30N 32°18' W 090°55'0 0.0
2017-Oct-20 08:00N 32°18' W 090°55'2 3.1
2017-Oct-20 07:30N 32°17' W 090°57'2 4.0
2017-Oct-20 07:00N 32°16' W 090°58'2 3.6
2017-Oct-20 06:30N 32°14' W 090°59'2 4.3
2017-Oct-20 06:00N 32°12' W 090°59'2 3.9
2017-Oct-20 05:30N 32°10' W 091°00'2 3.9
2017-Oct-20 05:00N 32°08' W 091°00'2 3.6
2017-Oct-20 04:28N 32°07' W 091°03'3 3.7
2017-Oct-20 03:43N 32°08' W 091°06'1 4.2
2017-Oct-20 03:30N 32°07' W 091°07'3 4.4
2017-Oct-20 02:46N 32°05' W 091°04'1 3.9
2017-Oct-20 02:24N 32°04' W 091°03'2 4.3
2017-Oct-20 02:00N 32°02' W 091°04'2 4.9
2017-Oct-20 01:30N 31°60' W 091°05'5 3.4
2017-Oct-20 00:08N 31°59' W 091°11'1 4.7
2017-Oct-20 00:00N 31°58' W 091°11'  
2017-Oct-16 05:56N 31°41' W 091°24'23 6.2
2017-Oct-16 02:09N 31°59' W 091°06'3 6.9
2017-Oct-16 01:45N 32°01' W 091°04'5 6.4
2017-Oct-16 00:56N 32°06' W 091°06'1 3.3
2017-Oct-16 00:30N 32°08' W 091°06'2 4.8
2017-Oct-16 00:00N 32°08' W 091°03'3 6.1
2017-Oct-15 23:30N 32°09' W 091°00'4 7.6
2017-Oct-15 23:00N 32°13' W 090°59'4 7.5
2017-Oct-15 22:30N 32°16' W 090°58'3 6.6
2017-Oct-15 22:00N 32°18' W 090°55'3 5.1
2017-Oct-15 21:30N 32°21' W 090°55'3 6.9
2017-Oct-15 21:00N 32°21' W 090°59'3 5.0
2017-Oct-15 20:30N 32°24' W 090°60'3 6.4
2017-Oct-15 20:00N 32°26' W 091°02'3 7.0
2017-Oct-15 19:30N 32°28' W 091°06'6 6.6
2017-Oct-15 18:37N 32°33' W 091°06'1 7.5
2017-Oct-15 18:30N 32°34' W 091°06'3 7.0
2017-Oct-15 18:00N 32°37' W 091°09'8 3.3
2017-Oct-15 15:38N 32°45' W 091°09'1 6.5
2017-Oct-15 15:30N 32°45' W 091°09'  
Track history (hours):
 
Tides and Currents Weather Stations Pressure Air Temp Water Temp Dewpoint Dewpoint Depression Visibility Wind Speed Wind Dir Waves Ship Positions

Carl Cannon

Owner: American Commercial Lines LLC, Jeffersonville, IN. More information available from US FCC via Universal Licensing System and Coast Guard Vessel Documentation Center.

Last reported at 2017-Oct-20 17:56 UTC. Time now 2017-Nov-17 23:19 UTC.
Position N 32°40' W 091°07'.
Warning: this ship's position is 28 days out of date.

Length 41 m; draft 3.4 m.

MMSI: 367057590.

Date/timePositionNaut miles runAvg speedWind from/ knotsBaromVisibWave heightAir tempDewpointWater temp
2017-Oct-20 17:56N 32°40' W 091°07'1 3.4
2017-Oct-20 17:29N 32°39' W 091°09'2 3.5
2017-Oct-20 17:00N 32°38' W 091°09'2 4.2
2017-Oct-20 16:30N 32°36' W 091°08'2 4.4
2017-Oct-20 16:00N 32°34' W 091°06'2 3.6
2017-Oct-20 15:30N 32°32' W 091°06'2 4.7
2017-Oct-20 15:00N 32°30' W 091°07'2 4.6
2017-Oct-20 14:30N 32°28' W 091°06'5 4.5
2017-Oct-20 13:30N 32°26' W 091°01'2 4.1
2017-Oct-20 13:00N 32°25' W 090°60'2 3.8
2017-Oct-20 12:30N 32°23' W 091°00'1 1.5
2017-Oct-20 12:00N 32°22' W 091°00'1 2.5
2017-Oct-20 11:30N 32°21' W 090°59'2 4.8
2017-Oct-20 11:00N 32°21' W 090°57'2 4.2
2017-Oct-20 10:30N 32°20' W 090°54'2 4.0
2017-Oct-20 10:00N 32°18' W 090°55'0 0.9
2017-Oct-20 09:30N 32°18' W 090°55'0 0.6
2017-Oct-20 09:00N 32°18' W 090°55'0 0.1
2017-Oct-20 08:30N 32°18' W 090°55'0 0.0
2017-Oct-20 08:00N 32°18' W 090°55'2 3.1
2017-Oct-20 07:30N 32°17' W 090°57'2 4.0
2017-Oct-20 07:00N 32°16' W 090°58'2 3.6
2017-Oct-20 06:30N 32°14' W 090°59'2 4.3
2017-Oct-20 06:00N 32°12' W 090°59'2 3.9
2017-Oct-20 05:30N 32°10' W 091°00'2 3.9
2017-Oct-20 05:00N 32°08' W 091°00'2 3.6
2017-Oct-20 04:28N 32°07' W 091°03'3 3.7
2017-Oct-20 03:43N 32°08' W 091°06'1 4.2
2017-Oct-20 03:30N 32°07' W 091°07'3 4.4
2017-Oct-20 02:46N 32°05' W 091°04'1 3.9
2017-Oct-20 02:24N 32°04' W 091°03'2 4.3
2017-Oct-20 02:00N 32°02' W 091°04'2 4.9
2017-Oct-20 01:30N 31°60' W 091°05'5 3.4
2017-Oct-20 00:08N 31°59' W 091°11'1 4.7
2017-Oct-20 00:00N 31°58' W 091°11'  
2017-Oct-16 05:56N 31°41' W 091°24'23 6.2
2017-Oct-16 02:09N 31°59' W 091°06'3 6.9
2017-Oct-16 01:45N 32°01' W 091°04'5 6.4
2017-Oct-16 00:56N 32°06' W 091°06'1 3.3
2017-Oct-16 00:30N 32°08' W 091°06'2 4.8
2017-Oct-16 00:00N 32°08' W 091°03'3 6.1
2017-Oct-15 23:30N 32°09' W 091°00'4 7.6
2017-Oct-15 23:00N 32°13' W 090°59'4 7.5
2017-Oct-15 22:30N 32°16' W 090°58'3 6.6
2017-Oct-15 22:00N 32°18' W 090°55'3 5.1
2017-Oct-15 21:30N 32°21' W 090°55'3 6.9
2017-Oct-15 21:00N 32°21' W 090°59'3 5.0
2017-Oct-15 20:30N 32°24' W 090°60'3 6.4
2017-Oct-15 20:00N 32°26' W 091°02'3 7.0
2017-Oct-15 19:30N 32°28' W 091°06'6 6.6
2017-Oct-15 18:37N 32°33' W 091°06'1 7.5
2017-Oct-15 18:30N 32°34' W 091°06'3 7.0
2017-Oct-15 18:00N 32°37' W 091°09'8 3.3
2017-Oct-15 15:38N 32°45' W 091°09'1 6.5
2017-Oct-15 15:30N 32°45' W 091°09'  

Dump ship's entire track history